sensor_id;sensor_type;location;lat;lon;timestamp;P1;durP1;ratioP1;P2;durP2;ratioP2
16099;SDS011;8154;50.830;12.082;2022-11-20T00:00:00;3.10;;;2.90;;
16099;SDS011;8154;50.830;12.082;2022-11-20T00:02:45;3.10;;;2.90;;
16099;SDS011;8154;50.830;12.082;2022-11-20T00:05:31;3.10;;;2.90;;
16099;SDS011;8154;50.830;12.082;2022-11-20T00:08:16;3.30;;;3.10;;
16099;SDS011;8154;50.830;12.082;2022-11-20T00:11:09;3.20;;;3.00;;
16099;SDS011;8154;50.830;12.082;2022-11-20T00:13:55;3.28;;;3.08;;
16099;SDS011;8154;50.830;12.082;2022-11-20T00:16:42;3.53;;;3.22;;
16099;SDS011;8154;50.830;12.082;2022-11-20T00:19:26;3.15;;;2.95;;
16099;SDS011;8154;50.830;12.082;2022-11-20T00:22:10;3.22;;;3.03;;
16099;SDS011;8154;50.830;12.082;2022-11-20T00:24:54;3.20;;;3.00;;
16099;SDS011;8154;50.830;12.082;2022-11-20T00:27:41;3.20;;;3.00;;
16099;SDS011;8154;50.830;12.082;2022-11-20T00:30:25;3.40;;;3.20;;
16099;SDS011;8154;50.830;12.082;2022-11-20T00:33:09;3.50;;;3.20;;
16099;SDS011;8154;50.830;12.082;2022-11-20T00:35:56;2.92;;;2.72;;
16099;SDS011;8154;50.830;12.082;2022-11-20T00:38:44;3.50;;;3.20;;
16099;SDS011;8154;50.830;12.082;2022-11-20T00:41:29;3.38;;;3.10;;
16099;SDS011;8154;50.830;12.082;2022-11-20T00:44:13;3.28;;;3.08;;
16099;SDS011;8154;50.830;12.082;2022-11-20T00:46:57;3.53;;;3.22;;
16099;SDS011;8154;50.830;12.082;2022-11-20T00:49:42;3.30;;;3.10;;
16099;SDS011;8154;50.830;12.082;2022-11-20T00:52:26;3.10;;;2.90;;
16099;SDS011;8154;50.830;12.082;2022-11-20T00:55:10;3.50;;;3.20;;
16099;SDS011;8154;50.830;12.082;2022-11-20T00:57:54;3.58;;;3.28;;
16099;SDS011;8154;50.830;12.082;2022-11-20T01:00:38;3.30;;;3.10;;
16099;SDS011;8154;50.830;12.082;2022-11-20T01:03:22;3.50;;;3.20;;
16099;SDS011;8154;50.830;12.082;2022-11-20T01:06:11;3.10;;;2.90;;
16099;SDS011;8154;50.830;12.082;2022-11-20T01:09:07;3.10;;;2.90;;
16099;SDS011;8154;50.830;12.082;2022-11-20T01:11:55;3.60;;;3.30;;
16099;SDS011;8154;50.830;12.082;2022-11-20T01:14:43;3.53;;;3.22;;
16099;SDS011;8154;50.830;12.082;2022-11-20T01:17:27;3.10;;;2.90;;
16099;SDS011;8154;50.830;12.082;2022-11-20T01:20:11;3.40;;;3.10;;
16099;SDS011;8154;50.830;12.082;2022-11-20T01:22:55;3.60;;;3.30;;
16099;SDS011;8154;50.830;12.082;2022-11-20T01:25:39;3.67;;;3.38;;
16099;SDS011;8154;50.830;12.082;2022-11-20T01:28:23;3.53;;;3.22;;
16099;SDS011;8154;50.830;12.082;2022-11-20T01:31:15;3.50;;;3.20;;
16099;SDS011;8154;50.830;12.082;2022-11-20T01:34:02;3.28;;;3.00;;
16099;SDS011;8154;50.830;12.082;2022-11-20T01:36:49;3.67;;;3.38;;
16099;SDS011;8154;50.830;12.082;2022-11-20T01:39:33;3.35;;;3.13;;
16099;SDS011;8154;50.830;12.082;2022-11-20T01:42:17;3.30;;;3.10;;
16099;SDS011;8154;50.830;12.082;2022-11-20T01:49:02;3.33;;;3.10;;
16099;SDS011;8154;50.830;12.082;2022-11-20T01:51:48;3.20;;;3.00;;
16099;SDS011;8154;50.830;12.082;2022-11-20T01:54:41;3.22;;;3.03;;
16099;SDS011;8154;50.830;12.082;2022-11-20T01:57:39;3.28;;;3.03;;
16099;SDS011;8154;50.830;12.082;2022-11-20T02:00:24;3.22;;;3.03;;
16099;SDS011;8154;50.830;12.082;2022-11-20T02:03:12;3.58;;;3.28;;
16099;SDS011;8154;50.830;12.082;2022-11-20T02:09:02;3.60;;;3.30;;
16099;SDS011;8154;50.830;12.082;2022-11-20T02:11:46;3.50;;;3.20;;
16099;SDS011;8154;50.830;12.082;2022-11-20T02:14:30;3.30;;;3.10;;
16099;SDS011;8154;50.830;12.082;2022-11-20T02:17:15;3.70;;;3.40;;
16099;SDS011;8154;50.830;12.082;2022-11-20T02:19:59;3.40;;;3.15;;
16099;SDS011;8154;50.830;12.082;2022-11-20T02:26:00;3.75;;;3.45;;
16099;SDS011;8154;50.830;12.082;2022-11-20T02:28:48;3.45;;;3.15;;
16099;SDS011;8154;50.830;12.082;2022-11-20T02:31:37;3.50;;;3.20;;
16099;SDS011;8154;50.830;12.082;2022-11-20T02:34:24;3.40;;;3.20;;
16099;SDS011;8154;50.830;12.082;2022-11-20T02:37:08;3.30;;;3.10;;
16099;SDS011;8154;50.830;12.082;2022-11-20T02:39:53;3.30;;;3.10;;
16099;SDS011;8154;50.830;12.082;2022-11-20T02:42:37;3.35;;;3.15;;
16099;SDS011;8154;50.830;12.082;2022-11-20T02:45:21;3.28;;;3.08;;
16099;SDS011;8154;50.830;12.082;2022-11-20T02:48:09;3.00;;;2.80;;
16099;SDS011;8154;50.830;12.082;2022-11-20T02:50:53;3.28;;;2.97;;
16099;SDS011;8154;50.830;12.082;2022-11-20T02:53:37;3.30;;;3.10;;
16099;SDS011;8154;50.830;12.082;2022-11-20T02:56:21;3.47;;;3.22;;
16099;SDS011;8154;50.830;12.082;2022-11-20T02:59:06;3.60;;;3.30;;
16099;SDS011;8154;50.830;12.082;2022-11-20T03:01:50;3.50;;;3.20;;
16099;SDS011;8154;50.830;12.082;2022-11-20T03:04:34;3.40;;;3.10;;
16099;SDS011;8154;50.830;12.082;2022-11-20T03:07:18;3.53;;;3.22;;
16099;SDS011;8154;50.830;12.082;2022-11-20T03:10:03;3.60;;;3.30;;
16099;SDS011;8154;50.830;12.082;2022-11-20T03:12:52;3.40;;;3.13;;
16099;SDS011;8154;50.830;12.082;2022-11-20T03:15:38;3.40;;;3.20;;
16099;SDS011;8154;50.830;12.082;2022-11-20T03:18:22;3.40;;;3.20;;
16099;SDS011;8154;50.830;12.082;2022-11-20T03:21:06;3.70;;;3.40;;
16099;SDS011;8154;50.830;12.082;2022-11-20T03:23:50;3.50;;;3.22;;
16099;SDS011;8154;50.830;12.082;2022-11-20T03:26:34;3.60;;;3.30;;
16099;SDS011;8154;50.830;12.082;2022-11-20T03:29:19;3.60;;;3.30;;
16099;SDS011;8154;50.830;12.082;2022-11-20T03:32:03;3.30;;;3.10;;
16099;SDS011;8154;50.830;12.082;2022-11-20T03:34:48;3.10;;;2.90;;
16099;SDS011;8154;50.830;12.082;2022-11-20T03:37:32;3.60;;;3.30;;
16099;SDS011;8154;50.830;12.082;2022-11-20T03:40:16;3.50;;;3.20;;
16099;SDS011;8154;50.830;12.082;2022-11-20T03:43:00;3.60;;;3.30;;
16099;SDS011;8154;50.830;12.082;2022-11-20T03:45:44;3.28;;;3.00;;
16099;SDS011;8154;50.830;12.082;2022-11-20T03:48:28;3.35;;;3.15;;
16099;SDS011;8154;50.830;12.082;2022-11-20T03:51:17;3.50;;;3.20;;
16099;SDS011;8154;50.830;12.082;2022-11-20T03:54:06;3.15;;;2.95;;
16099;SDS011;8154;50.830;12.082;2022-11-20T03:56:51;3.58;;;3.28;;
16099;SDS011;8154;50.830;12.082;2022-11-20T03:59:36;3.30;;;3.10;;
16099;SDS011;8154;50.830;12.082;2022-11-20T04:02:20;3.72;;;3.42;;
16099;SDS011;8154;50.830;12.082;2022-11-20T04:05:06;3.60;;;3.38;;
16099;SDS011;8154;50.830;12.082;2022-11-20T04:07:50;3.42;;;3.22;;
16099;SDS011;8154;50.830;12.082;2022-11-20T04:10:34;3.40;;;3.20;;
16099;SDS011;8154;50.830;12.082;2022-11-20T04:13:18;3.45;;;3.15;;
16099;SDS011;8154;50.830;12.082;2022-11-20T04:16:03;3.53;;;3.22;;
16099;SDS011;8154;50.830;12.082;2022-11-20T04:18:55;3.70;;;3.40;;
16099;SDS011;8154;50.830;12.082;2022-11-20T04:21:41;3.50;;;3.20;;
16099;SDS011;8154;50.830;12.082;2022-11-20T04:24:26;3.55;;;3.25;;
16099;SDS011;8154;50.830;12.082;2022-11-20T04:27:10;3.58;;;3.28;;
16099;SDS011;8154;50.830;12.082;2022-11-20T04:29:54;3.75;;;3.45;;
16099;SDS011;8154;50.830;12.082;2022-11-20T04:32:38;3.30;;;3.10;;
16099;SDS011;8154;50.830;12.082;2022-11-20T04:35:23;3.30;;;3.10;;
16099;SDS011;8154;50.830;12.082;2022-11-20T04:38:07;3.45;;;3.20;;
16099;SDS011;8154;50.830;12.082;2022-11-20T04:40:55;3.40;;;3.10;;
16099;SDS011;8154;50.830;12.082;2022-11-20T04:43:50;3.30;;;3.00;;
16099;SDS011;8154;50.830;12.082;2022-11-20T04:46:38;3.35;;;3.08;;
16099;SDS011;8154;50.830;12.082;2022-11-20T04:49:26;3.22;;;3.03;;
16099;SDS011;8154;50.830;12.082;2022-11-20T04:52:10;3.30;;;3.10;;
16099;SDS011;8154;50.830;12.082;2022-11-20T04:54:54;3.47;;;3.17;;
16099;SDS011;8154;50.830;12.082;2022-11-20T04:57:38;3.25;;;3.05;;
16099;SDS011;8154;50.830;12.082;2022-11-20T05:00:22;3.45;;;3.15;;
16099;SDS011;8154;50.830;12.082;2022-11-20T05:03:06;3.20;;;3.00;;
16099;SDS011;8154;50.830;12.082;2022-11-20T05:05:51;3.30;;;3.10;;
16099;SDS011;8154;50.830;12.082;2022-11-20T05:08:35;3.17;;;2.97;;
16099;SDS011;8154;50.830;12.082;2022-11-20T05:11:20;3.70;;;3.40;;
16099;SDS011;8154;50.830;12.082;2022-11-20T05:14:04;3.20;;;3.00;;
16099;SDS011;8154;50.830;12.082;2022-11-20T05:16:49;3.10;;;2.90;;
16099;SDS011;8154;50.830;12.082;2022-11-20T05:19:33;3.70;;;3.40;;
16099;SDS011;8154;50.830;12.082;2022-11-20T05:22:18;3.22;;;3.00;;
16099;SDS011;8154;50.830;12.082;2022-11-20T05:25:03;3.60;;;3.30;;
16099;SDS011;8154;50.830;12.082;2022-11-20T05:27:47;3.42;;;3.13;;
16099;SDS011;8154;50.830;12.082;2022-11-20T05:30:31;3.70;;;3.40;;
16099;SDS011;8154;50.830;12.082;2022-11-20T05:33:15;3.50;;;3.20;;
16099;SDS011;8154;50.830;12.082;2022-11-20T05:36:00;3.42;;;3.22;;
16099;SDS011;8154;50.830;12.082;2022-11-20T05:38:45;3.10;;;2.90;;
16099;SDS011;8154;50.830;12.082;2022-11-20T05:41:29;3.50;;;3.20;;
16099;SDS011;8154;50.830;12.082;2022-11-20T05:44:13;3.50;;;3.20;;
16099;SDS011;8154;50.830;12.082;2022-11-20T05:46:57;3.65;;;3.35;;
16099;SDS011;8154;50.830;12.082;2022-11-20T05:49:42;3.60;;;3.30;;
16099;SDS011;8154;50.830;12.082;2022-11-20T05:52:29;3.25;;;3.05;;
16099;SDS011;8154;50.830;12.082;2022-11-20T05:55:14;3.35;;;3.08;;
16099;SDS011;8154;50.830;12.082;2022-11-20T05:57:58;3.22;;;3.03;;
16099;SDS011;8154;50.830;12.082;2022-11-20T06:00:42;3.45;;;3.20;;
16099;SDS011;8154;50.830;12.082;2022-11-20T06:03:26;3.20;;;3.00;;
16099;SDS011;8154;50.830;12.082;2022-11-20T06:06:11;3.40;;;3.20;;
16099;SDS011;8154;50.830;12.082;2022-11-20T06:08:56;3.50;;;3.20;;
16099;SDS011;8154;50.830;12.082;2022-11-20T06:11:42;3.90;;;3.60;;
16099;SDS011;8154;50.830;12.082;2022-11-20T06:14:26;3.42;;;3.20;;
16099;SDS011;8154;50.830;12.082;2022-11-20T06:17:10;3.15;;;2.95;;
16099;SDS011;8154;50.830;12.082;2022-11-20T06:19:55;3.55;;;3.25;;
16099;SDS011;8154;50.830;12.082;2022-11-20T06:22:39;3.22;;;3.03;;
16099;SDS011;8154;50.830;12.082;2022-11-20T06:25:24;3.25;;;3.05;;
16099;SDS011;8154;50.830;12.082;2022-11-20T06:28:08;3.22;;;3.03;;
16099;SDS011;8154;50.830;12.082;2022-11-20T06:30:53;3.30;;;3.10;;
16099;SDS011;8154;50.830;12.082;2022-11-20T06:33:37;3.10;;;2.90;;
16099;SDS011;8154;50.830;12.082;2022-11-20T06:36:22;3.10;;;2.90;;
16099;SDS011;8154;50.830;12.082;2022-11-20T06:39:06;3.50;;;3.20;;
16099;SDS011;8154;50.830;12.082;2022-11-20T06:41:50;3.55;;;3.25;;
16099;SDS011;8154;50.830;12.082;2022-11-20T06:44:35;3.17;;;2.97;;
16099;SDS011;8154;50.830;12.082;2022-11-20T06:47:19;3.40;;;3.20;;
16099;SDS011;8154;50.830;12.082;2022-11-20T06:50:03;3.47;;;3.28;;
16099;SDS011;8154;50.830;12.082;2022-11-20T06:52:48;3.30;;;3.10;;
16099;SDS011;8154;50.830;12.082;2022-11-20T06:55:32;3.53;;;3.22;;
16099;SDS011;8154;50.830;12.082;2022-11-20T06:58:16;3.55;;;3.25;;
16099;SDS011;8154;50.830;12.082;2022-11-20T07:01:02;3.50;;;3.20;;
16099;SDS011;8154;50.830;12.082;2022-11-20T07:03:51;3.40;;;3.20;;
16099;SDS011;8154;50.830;12.082;2022-11-20T07:06:35;3.33;;;3.10;;
16099;SDS011;8154;50.830;12.082;2022-11-20T07:09:22;3.40;;;3.20;;
16099;SDS011;8154;50.830;12.082;2022-11-20T07:12:06;3.13;;;2.92;;
16099;SDS011;8154;50.830;12.082;2022-11-20T07:14:50;3.38;;;3.17;;
16099;SDS011;8154;50.830;12.082;2022-11-20T07:17:34;3.30;;;3.10;;
16099;SDS011;8154;50.830;12.082;2022-11-20T07:20:18;3.30;;;3.00;;
16099;SDS011;8154;50.830;12.082;2022-11-20T07:23:02;3.30;;;3.08;;
16099;SDS011;8154;50.830;12.082;2022-11-20T07:25:46;3.30;;;3.10;;
16099;SDS011;8154;50.830;12.082;2022-11-20T07:28:30;3.20;;;3.00;;
16099;SDS011;8154;50.830;12.082;2022-11-20T07:31:15;3.30;;;3.10;;
16099;SDS011;8154;50.830;12.082;2022-11-20T07:33:59;3.40;;;3.10;;
16099;SDS011;8154;50.830;12.082;2022-11-20T07:36:43;3.30;;;3.10;;
16099;SDS011;8154;50.830;12.082;2022-11-20T07:39:27;3.33;;;3.08;;
16099;SDS011;8154;50.830;12.082;2022-11-20T07:42:11;3.22;;;3.03;;
16099;SDS011;8154;50.830;12.082;2022-11-20T07:44:56;3.60;;;3.30;;
16099;SDS011;8154;50.830;12.082;2022-11-20T07:47:40;3.20;;;3.00;;
16099;SDS011;8154;50.830;12.082;2022-11-20T07:50:24;3.60;;;3.30;;
16099;SDS011;8154;50.830;12.082;2022-11-20T07:53:08;3.50;;;3.20;;
16099;SDS011;8154;50.830;12.082;2022-11-20T07:55:53;3.30;;;3.10;;
16099;SDS011;8154;50.830;12.082;2022-11-20T07:58:37;3.38;;;3.17;;
16099;SDS011;8154;50.830;12.082;2022-11-20T08:01:21;3.40;;;3.10;;
16099;SDS011;8154;50.830;12.082;2022-11-20T08:04:06;3.38;;;3.17;;
16099;SDS011;8154;50.830;12.082;2022-11-20T08:06:51;3.30;;;3.10;;
16099;SDS011;8154;50.830;12.082;2022-11-20T08:09:36;3.45;;;3.15;;
16099;SDS011;8154;50.830;12.082;2022-11-20T08:12:20;3.28;;;3.08;;
16099;SDS011;8154;50.830;12.082;2022-11-20T08:15:24;3.72;;;3.42;;
16099;SDS011;8154;50.830;12.082;2022-11-20T08:18:09;3.50;;;3.20;;
16099;SDS011;8154;50.830;12.082;2022-11-20T08:20:55;3.10;;;2.90;;
16099;SDS011;8154;50.830;12.082;2022-11-20T08:23:39;3.17;;;2.97;;
16099;SDS011;8154;50.830;12.082;2022-11-20T08:26:24;3.55;;;3.25;;
16099;SDS011;8154;50.830;12.082;2022-11-20T08:29:08;3.40;;;3.10;;
16099;SDS011;8154;50.830;12.082;2022-11-20T08:31:52;3.35;;;3.15;;
16099;SDS011;8154;50.830;12.082;2022-11-20T08:34:36;3.53;;;3.28;;
16099;SDS011;8154;50.830;12.082;2022-11-20T08:37:21;3.35;;;3.08;;
16099;SDS011;8154;50.830;12.082;2022-11-20T08:40:05;3.30;;;3.10;;
16099;SDS011;8154;50.830;12.082;2022-11-20T08:42:50;3.42;;;3.22;;
16099;SDS011;8154;50.830;12.082;2022-11-20T08:45:34;3.20;;;3.00;;
16099;SDS011;8154;50.830;12.082;2022-11-20T08:48:18;3.50;;;3.20;;
16099;SDS011;8154;50.830;12.082;2022-11-20T08:51:03;3.55;;;3.25;;
16099;SDS011;8154;50.830;12.082;2022-11-20T08:53:47;3.35;;;3.10;;
16099;SDS011;8154;50.830;12.082;2022-11-20T08:56:32;3.30;;;3.10;;
16099;SDS011;8154;50.830;12.082;2022-11-20T08:59:17;3.67;;;3.38;;
16099;SDS011;8154;50.830;12.082;2022-11-20T09:02:01;3.55;;;3.28;;
16099;SDS011;8154;50.830;12.082;2022-11-20T09:04:46;3.50;;;3.20;;
16099;SDS011;8154;50.830;12.082;2022-11-20T09:07:30;3.42;;;3.15;;
16099;SDS011;8154;50.830;12.082;2022-11-20T09:10:15;3.80;;;3.50;;
16099;SDS011;8154;50.830;12.082;2022-11-20T09:12:59;3.22;;;3.03;;
16099;SDS011;8154;50.830;12.082;2022-11-20T09:15:44;3.42;;;3.20;;
16099;SDS011;8154;50.830;12.082;2022-11-20T09:18:28;3.40;;;3.10;;
16099;SDS011;8154;50.830;12.082;2022-11-20T09:21:15;3.70;;;3.40;;
16099;SDS011;8154;50.830;12.082;2022-11-20T09:23:59;3.67;;;3.38;;
16099;SDS011;8154;50.830;12.082;2022-11-20T09:26:43;3.53;;;3.22;;
16099;SDS011;8154;50.830;12.082;2022-11-20T09:29:28;3.85;;;3.55;;
16099;SDS011;8154;50.830;12.082;2022-11-20T09:32:13;3.60;;;3.30;;
16099;SDS011;8154;50.830;12.082;2022-11-20T09:34:57;3.65;;;3.35;;
16099;SDS011;8154;50.830;12.082;2022-11-20T09:37:41;3.47;;;3.28;;
16099;SDS011;8154;50.830;12.082;2022-11-20T09:40:26;3.50;;;3.20;;
16099;SDS011;8154;50.830;12.082;2022-11-20T09:43:13;3.47;;;3.28;;
16099;SDS011;8154;50.830;12.082;2022-11-20T09:55:12;3.70;;;3.40;;
16099;SDS011;8154;50.830;12.082;2022-11-20T09:57:58;3.30;;;3.10;;
16099;SDS011;8154;50.830;12.082;2022-11-20T10:00:43;3.80;;;3.50;;
16099;SDS011;8154;50.830;12.082;2022-11-20T10:03:39;3.65;;;3.35;;
16099;SDS011;8154;50.830;12.082;2022-11-20T10:09:18;3.50;;;3.20;;
16099;SDS011;8154;50.830;12.082;2022-11-20T10:27:21;3.35;;;3.05;;
16099;SDS011;8154;50.830;12.082;2022-11-20T10:30:13;3.20;;;3.00;;
16099;SDS011;8154;50.830;12.082;2022-11-20T10:33:03;3.45;;;3.20;;
16099;SDS011;8154;50.830;12.082;2022-11-20T10:35:54;3.75;;;3.45;;
16099;SDS011;8154;50.830;12.082;2022-11-20T10:41:40;3.63;;;3.33;;
16099;SDS011;8154;50.830;12.082;2022-11-20T10:44:28;3.25;;;3.05;;
16099;SDS011;8154;50.830;12.082;2022-11-20T10:47:32;3.42;;;3.15;;
16099;SDS011;8154;50.830;12.082;2022-11-20T10:50:20;3.58;;;3.30;;
16099;SDS011;8154;50.830;12.082;2022-11-20T10:55:55;3.47;;;3.20;;
16099;SDS011;8154;50.830;12.082;2022-11-20T11:01:46;3.28;;;3.05;;
16099;SDS011;8154;50.830;12.082;2022-11-20T11:07:25;3.88;;;3.58;;
16099;SDS011;8154;50.830;12.082;2022-11-20T11:13:24;3.40;;;3.20;;
16099;SDS011;8154;50.830;12.082;2022-11-20T11:16:23;3.30;;;3.10;;
16099;SDS011;8154;50.830;12.082;2022-11-20T11:19:13;3.38;;;3.17;;
16099;SDS011;8154;50.830;12.082;2022-11-20T11:21:58;3.67;;;3.38;;
16099;SDS011;8154;50.830;12.082;2022-11-20T11:24:51;3.30;;;3.10;;
16099;SDS011;8154;50.830;12.082;2022-11-20T11:27:45;3.60;;;3.30;;
16099;SDS011;8154;50.830;12.082;2022-11-20T11:30:40;3.30;;;3.10;;
16099;SDS011;8154;50.830;12.082;2022-11-20T11:33:27;3.70;;;3.40;;
16099;SDS011;8154;50.830;12.082;2022-11-20T11:36:16;3.67;;;3.38;;
16099;SDS011;8154;50.830;12.082;2022-11-20T11:39:04;3.50;;;3.20;;
16099;SDS011;8154;50.830;12.082;2022-11-20T11:41:55;3.67;;;3.38;;
16099;SDS011;8154;50.830;12.082;2022-11-20T11:44:43;3.58;;;3.28;;
16099;SDS011;8154;50.830;12.082;2022-11-20T11:47:48;3.80;;;3.50;;
16099;SDS011;8154;50.830;12.082;2022-11-20T11:50:35;3.25;;;3.05;;
16099;SDS011;8154;50.830;12.082;2022-11-20T11:53:19;3.30;;;3.10;;
16099;SDS011;8154;50.830;12.082;2022-11-20T11:56:09;3.28;;;3.08;;
16099;SDS011;8154;50.830;12.082;2022-11-20T11:58:57;3.30;;;3.00;;
16099;SDS011;8154;50.830;12.082;2022-11-20T12:01:54;3.28;;;3.08;;
16099;SDS011;8154;50.830;12.082;2022-11-20T12:04:44;3.53;;;3.22;;
16099;SDS011;8154;50.830;12.082;2022-11-20T12:07:55;3.22;;;3.03;;
16099;SDS011;8154;50.830;12.082;2022-11-20T12:13:58;3.40;;;3.10;;
16099;SDS011;8154;50.830;12.082;2022-11-20T12:17:11;3.30;;;3.10;;
16099;SDS011;8154;50.830;12.082;2022-11-20T12:19:57;3.40;;;3.20;;
16099;SDS011;8154;50.830;12.082;2022-11-20T12:22:48;3.33;;;3.10;;
16099;SDS011;8154;50.830;12.082;2022-11-20T12:25:40;3.40;;;3.20;;
16099;SDS011;8154;50.830;12.082;2022-11-20T12:28:31;3.70;;;3.40;;
16099;SDS011;8154;50.830;12.082;2022-11-20T12:31:37;3.30;;;3.10;;
16099;SDS011;8154;50.830;12.082;2022-11-20T12:43:51;3.25;;;3.05;;
16099;SDS011;8154;50.830;12.082;2022-11-20T12:50:52;3.47;;;3.17;;
16099;SDS011;8154;50.830;12.082;2022-11-20T13:00:16;3.20;;;3.00;;
16099;SDS011;8154;50.830;12.082;2022-11-20T13:06:18;3.00;;;2.80;;
16099;SDS011;8154;50.830;12.082;2022-11-20T13:09:04;3.28;;;3.08;;
16099;SDS011;8154;50.830;12.082;2022-11-20T13:18:00;3.28;;;3.05;;
16099;SDS011;8154;50.830;12.082;2022-11-20T13:20:46;3.20;;;3.00;;
16099;SDS011;8154;50.830;12.082;2022-11-20T13:23:33;3.20;;;3.00;;
16099;SDS011;8154;50.830;12.082;2022-11-20T13:26:21;3.35;;;3.13;;
16099;SDS011;8154;50.830;12.082;2022-11-20T13:29:25;3.22;;;3.03;;
16099;SDS011;8154;50.830;12.082;2022-11-20T13:32:16;3.30;;;3.10;;
16099;SDS011;8154;50.830;12.082;2022-11-20T13:35:04;3.22;;;3.03;;
16099;SDS011;8154;50.830;12.082;2022-11-20T13:37:49;3.60;;;3.30;;
16099;SDS011;8154;50.830;12.082;2022-11-20T13:40:53;3.20;;;3.00;;
16099;SDS011;8154;50.830;12.082;2022-11-20T13:43:42;3.35;;;3.05;;
16099;SDS011;8154;50.830;12.082;2022-11-20T13:46:40;3.08;;;2.88;;
16099;SDS011;8154;50.830;12.082;2022-11-20T13:49:34;3.30;;;3.10;;
16099;SDS011;8154;50.830;12.082;2022-11-20T14:01:21;3.20;;;3.00;;
16099;SDS011;8154;50.830;12.082;2022-11-20T14:04:08;3.22;;;3.03;;
16099;SDS011;8154;50.830;12.082;2022-11-20T14:06:58;3.30;;;3.03;;
16099;SDS011;8154;50.830;12.082;2022-11-20T14:09:53;3.30;;;3.10;;
16099;SDS011;8154;50.830;12.082;2022-11-20T14:12:39;3.00;;;2.80;;
16099;SDS011;8154;50.830;12.082;2022-11-20T14:15:24;3.20;;;3.00;;
16099;SDS011;8154;50.830;12.082;2022-11-20T14:18:15;3.20;;;3.00;;
16099;SDS011;8154;50.830;12.082;2022-11-20T14:21:05;3.40;;;3.10;;
16099;SDS011;8154;50.830;12.082;2022-11-20T14:23:51;3.10;;;2.90;;
16099;SDS011;8154;50.830;12.082;2022-11-20T14:26:37;3.10;;;2.90;;
16099;SDS011;8154;50.830;12.082;2022-11-20T14:29:29;3.08;;;2.88;;
16099;SDS011;8154;50.830;12.082;2022-11-20T14:32:19;2.97;;;2.78;;
16099;SDS011;8154;50.830;12.082;2022-11-20T14:35:26;3.10;;;2.90;;
16099;SDS011;8154;50.830;12.082;2022-11-20T14:38:14;3.00;;;2.80;;
16099;SDS011;8154;50.830;12.082;2022-11-20T14:41:08;3.30;;;3.10;;
16099;SDS011;8154;50.830;12.082;2022-11-20T14:43:58;3.03;;;2.83;;
16099;SDS011;8154;50.830;12.082;2022-11-20T14:46:44;3.00;;;2.80;;
16099;SDS011;8154;50.830;12.082;2022-11-20T14:49:29;3.13;;;2.92;;
16099;SDS011;8154;50.830;12.082;2022-11-20T14:52:19;3.05;;;2.85;;
16099;SDS011;8154;50.830;12.082;2022-11-20T14:55:07;3.10;;;2.90;;
16099;SDS011;8154;50.830;12.082;2022-11-20T14:57:56;3.00;;;2.80;;
16099;SDS011;8154;50.830;12.082;2022-11-20T15:00:42;3.10;;;2.90;;
16099;SDS011;8154;50.830;12.082;2022-11-20T15:03:40;2.88;;;2.67;;
16099;SDS011;8154;50.830;12.082;2022-11-20T15:06:25;2.80;;;2.60;;
16099;SDS011;8154;50.830;12.082;2022-11-20T15:09:14;3.00;;;2.80;;
16099;SDS011;8154;50.830;12.082;2022-11-20T15:12:01;3.05;;;2.85;;
16099;SDS011;8154;50.830;12.082;2022-11-20T15:14:46;2.95;;;2.70;;
16099;SDS011;8154;50.830;12.082;2022-11-20T15:17:32;3.20;;;2.95;;
16099;SDS011;8154;50.830;12.082;2022-11-20T15:20:23;2.78;;;2.58;;
16099;SDS011;8154;50.830;12.082;2022-11-20T15:23:11;3.00;;;2.80;;
16099;SDS011;8154;50.830;12.082;2022-11-20T15:25:58;3.00;;;2.80;;
16099;SDS011;8154;50.830;12.082;2022-11-20T15:28:44;3.03;;;2.83;;
16099;SDS011;8154;50.830;12.082;2022-11-20T15:31:34;2.90;;;2.70;;
16099;SDS011;8154;50.830;12.082;2022-11-20T15:34:18;2.90;;;2.70;;
16099;SDS011;8154;50.830;12.082;2022-11-20T15:37:02;2.92;;;2.72;;
16099;SDS011;8154;50.830;12.082;2022-11-20T15:39:46;2.92;;;2.72;;
16099;SDS011;8154;50.830;12.082;2022-11-20T15:42:31;3.03;;;2.83;;
16099;SDS011;8154;50.830;12.082;2022-11-20T15:45:16;2.72;;;2.53;;
16099;SDS011;8154;50.830;12.082;2022-11-20T15:48:00;2.78;;;2.58;;
16099;SDS011;8154;50.830;12.082;2022-11-20T15:53:48;2.90;;;2.70;;
16099;SDS011;8154;50.830;12.082;2022-11-20T15:56:33;2.90;;;2.70;;
16099;SDS011;8154;50.830;12.082;2022-11-20T15:59:17;2.65;;;2.45;;
16099;SDS011;8154;50.830;12.082;2022-11-20T16:02:02;3.00;;;2.80;;
16099;SDS011;8154;50.830;12.082;2022-11-20T16:04:46;3.00;;;2.80;;
16099;SDS011;8154;50.830;12.082;2022-11-20T16:07:31;3.00;;;2.80;;
16099;SDS011;8154;50.830;12.082;2022-11-20T16:10:15;2.70;;;2.50;;
16099;SDS011;8154;50.830;12.082;2022-11-20T16:13:00;2.95;;;2.75;;
16099;SDS011;8154;50.830;12.082;2022-11-20T16:16:05;2.92;;;2.72;;
16099;SDS011;8154;50.830;12.082;2022-11-20T16:18:56;3.00;;;2.80;;
16099;SDS011;8154;50.830;12.082;2022-11-20T16:21:44;2.90;;;2.70;;
16099;SDS011;8154;50.830;12.082;2022-11-20T16:24:28;3.00;;;2.80;;
16099;SDS011;8154;50.830;12.082;2022-11-20T16:27:13;2.78;;;2.58;;
16099;SDS011;8154;50.830;12.082;2022-11-20T16:29:57;2.80;;;2.60;;
16099;SDS011;8154;50.830;12.082;2022-11-20T16:32:41;3.10;;;2.90;;
16099;SDS011;8154;50.830;12.082;2022-11-20T16:35:27;2.70;;;2.50;;
16099;SDS011;8154;50.830;12.082;2022-11-20T16:38:11;2.88;;;2.67;;
16099;SDS011;8154;50.830;12.082;2022-11-20T16:40:59;3.15;;;2.95;;
16099;SDS011;8154;50.830;12.082;2022-11-20T16:43:48;2.80;;;2.60;;
16099;SDS011;8154;50.830;12.082;2022-11-20T16:46:34;2.85;;;2.65;;
16099;SDS011;8154;50.830;12.082;2022-11-20T16:49:18;2.53;;;2.33;;
16099;SDS011;8154;50.830;12.082;2022-11-20T16:52:03;2.78;;;2.58;;
16099;SDS011;8154;50.830;12.082;2022-11-20T16:54:47;2.90;;;2.70;;
16099;SDS011;8154;50.830;12.082;2022-11-20T16:57:32;2.60;;;2.40;;
16099;SDS011;8154;50.830;12.082;2022-11-20T17:00:17;3.00;;;2.80;;
16099;SDS011;8154;50.830;12.082;2022-11-20T17:03:01;2.90;;;2.70;;
16099;SDS011;8154;50.830;12.082;2022-11-20T17:05:46;2.88;;;2.67;;
16099;SDS011;8154;50.830;12.082;2022-11-20T17:08:30;2.47;;;2.30;;
16099;SDS011;8154;50.830;12.082;2022-11-20T17:11:15;2.60;;;2.40;;
16099;SDS011;8154;50.830;12.082;2022-11-20T17:14:01;2.88;;;2.67;;
16099;SDS011;8154;50.830;12.082;2022-11-20T17:16:55;2.80;;;2.60;;
16099;SDS011;8154;50.830;12.082;2022-11-20T17:19:39;2.90;;;2.70;;
16099;SDS011;8154;50.830;12.082;2022-11-20T17:22:23;2.80;;;2.60;;
16099;SDS011;8154;50.830;12.082;2022-11-20T17:25:08;2.80;;;2.60;;
16099;SDS011;8154;50.830;12.082;2022-11-20T17:27:53;2.92;;;2.72;;
16099;SDS011;8154;50.830;12.082;2022-11-20T17:30:37;2.75;;;2.55;;
16099;SDS011;8154;50.830;12.082;2022-11-20T17:33:22;2.72;;;2.53;;
16099;SDS011;8154;50.830;12.082;2022-11-20T17:36:07;2.90;;;2.70;;
16099;SDS011;8154;50.830;12.082;2022-11-20T17:38:52;2.67;;;2.47;;
16099;SDS011;8154;50.830;12.082;2022-11-20T17:41:37;2.90;;;2.70;;
16099;SDS011;8154;50.830;12.082;2022-11-20T17:44:21;2.83;;;2.63;;
16099;SDS011;8154;50.830;12.082;2022-11-20T17:47:06;2.72;;;2.53;;
16099;SDS011;8154;50.830;12.082;2022-11-20T17:49:50;2.92;;;2.72;;
16099;SDS011;8154;50.830;12.082;2022-11-20T17:52:34;2.90;;;2.70;;
16099;SDS011;8154;50.830;12.082;2022-11-20T17:55:18;2.88;;;2.67;;
16099;SDS011;8154;50.830;12.082;2022-11-20T17:58:02;2.92;;;2.72;;
16099;SDS011;8154;50.830;12.082;2022-11-20T18:00:49;3.30;;;3.00;;
16099;SDS011;8154;50.830;12.082;2022-11-20T18:03:34;2.92;;;2.72;;
16099;SDS011;8154;50.830;12.082;2022-11-20T18:06:22;2.90;;;2.70;;
16099;SDS011;8154;50.830;12.082;2022-11-20T18:09:07;3.10;;;2.90;;
16099;SDS011;8154;50.830;12.082;2022-11-20T18:11:51;3.00;;;2.80;;
16099;SDS011;8154;50.830;12.082;2022-11-20T18:14:36;2.63;;;2.42;;
16099;SDS011;8154;50.830;12.082;2022-11-20T18:17:20;2.85;;;2.65;;
16099;SDS011;8154;50.830;12.082;2022-11-20T18:20:04;2.97;;;2.78;;